Aviation Digital Data Service (ADDS)

Output produced by METARs form (1318 UTC 23 January 2019)
found at http://www.aviationweather.gov/metar/data/
 
Forecast for: OPMT (MULTAN , PK)
Text: TAF OPMT 231005Z 2312/2406 36005KT 3000 FU SCT120 TN08/2410Z
Forecast period: 1200 to 1900 UTC 23 January 2019
Forecast type: FROM: standard forecast or significant change
Winds: from the N (360 degrees) at 6 MPH (5 knots; 2.6 m/s)
Visibility: 1.86 miles (2.99 km)
Ceiling: at least 12,000 feet AGL
Clouds: scattered clouds at 12000 feet AGL
Weather: FU  (smoke)
Text: PROB30
Forecast period: 1500 to 1800 UTC 23 January 2019
Forecast type: TEMPORARY: The following changes expected for less than half the time period
Winds: calm
Visibility: 0.93 miles (1.50 km)
Ceiling: at least 12,000 feet AGL
Clouds: few clouds at 12000 feet AGL
Weather: BR  (mist)
Text: TEMPO 2315/2318 00000KT 1500 BR FEW120
Forecast period: 1900 UTC 23 January 2019 to 0600 UTC 24 January 2019
Forecast type: FROM: standard forecast or significant change
Winds: calm
Visibility: 0.31 miles (0.50 km)
Ceiling: unknown
Clouds: missing
Weather: FG  (fog)